createdAt,value
2023-04-20T00:00:46.372Z,4.36
2023-04-20T00:03:32.004Z,3.92
2023-04-20T00:06:17.049Z,3.90
2023-04-20T00:09:02.672Z,4.14
2023-04-20T00:11:48.019Z,4.05
2023-04-20T00:14:33.138Z,3.90
2023-04-20T00:17:18.631Z,3.99
2023-04-20T00:20:03.981Z,3.80
2023-04-20T00:22:49.376Z,3.97
2023-04-20T00:25:34.859Z,3.70
2023-04-20T00:28:20.190Z,4.00
2023-04-20T00:31:05.539Z,3.87
2023-04-20T00:33:50.956Z,3.79
2023-04-20T00:36:36.467Z,3.93
2023-04-20T00:39:21.630Z,3.62
2023-04-20T00:42:06.854Z,3.77
2023-04-20T00:44:52.163Z,3.60
2023-04-20T00:47:37.567Z,3.89
2023-04-20T00:50:22.982Z,3.85
2023-04-20T00:53:08.277Z,3.67
2023-04-20T00:55:53.681Z,3.79
2023-04-20T00:58:38.846Z,3.60
2023-04-20T01:01:24.373Z,3.66
2023-04-20T01:04:09.909Z,3.57
2023-04-20T01:06:55.448Z,3.68
2023-04-20T01:09:43.799Z,3.60
2023-04-20T01:12:29.173Z,3.55
2023-04-20T01:15:14.424Z,3.57
2023-04-20T01:17:59.909Z,3.61
2023-04-20T01:20:45.146Z,3.59
2023-04-20T01:23:30.214Z,3.47
2023-04-20T01:26:15.567Z,3.64
2023-04-20T01:29:01.070Z,3.57
2023-04-20T01:31:46.277Z,3.67
2023-04-20T01:34:31.996Z,3.73
2023-04-20T01:37:17.163Z,3.57
2023-04-20T01:40:02.701Z,3.50
2023-04-20T01:42:48.150Z,3.44
2023-04-20T01:45:33.559Z,3.36
2023-04-20T01:48:18.822Z,3.41
2023-04-20T01:51:04.181Z,3.46
2023-04-20T01:53:49.537Z,3.46
2023-04-20T01:56:34.963Z,3.30
2023-04-20T01:59:20.197Z,3.31
2023-04-20T02:02:05.770Z,3.45
2023-04-20T02:04:50.900Z,3.36
2023-04-20T02:07:36.215Z,3.46
2023-04-20T02:10:21.604Z,3.36
2023-04-20T02:13:06.976Z,3.29
2023-04-20T02:15:52.282Z,3.44
2023-04-20T02:18:37.632Z,3.35
2023-04-20T02:21:23.237Z,3.08
2023-04-20T02:24:08.500Z,3.28
2023-04-20T02:26:53.796Z,3.39
2023-04-20T02:29:39.265Z,3.35
2023-04-20T02:32:24.623Z,3.39
2023-04-20T02:35:10.024Z,3.25
2023-04-20T02:37:55.292Z,3.37
2023-04-20T02:40:40.777Z,3.39
2023-04-20T02:43:26.120Z,3.42
2023-04-20T02:46:11.501Z,3.58
2023-04-20T02:48:56.918Z,3.35
2023-04-20T02:51:42.315Z,3.36
2023-04-20T02:54:27.844Z,3.14
2023-04-20T02:57:13.195Z,3.34
2023-04-20T02:59:58.472Z,3.23
2023-04-20T03:02:43.969Z,3.15
2023-04-20T03:05:29.377Z,3.23
2023-04-20T03:08:14.517Z,3.21
2023-04-20T03:10:59.971Z,3.08
2023-04-20T03:13:45.622Z,3.48
2023-04-20T03:16:31.035Z,3.16
2023-04-20T03:19:16.621Z,3.30
2023-04-20T03:22:01.817Z,3.04
2023-04-20T03:24:47.165Z,3.21
2023-04-20T03:27:32.657Z,2.99
2023-04-20T03:30:17.851Z,3.05
2023-04-20T03:33:03.060Z,3.24
2023-04-20T03:35:48.451Z,3.24
2023-04-20T03:38:34.072Z,3.04
2023-04-20T03:41:19.455Z,3.11
2023-04-20T03:44:04.695Z,3.05
2023-04-20T03:46:49.952Z,3.14
2023-04-20T03:49:35.477Z,3.29
2023-04-20T03:52:20.911Z,3.04
2023-04-20T03:55:05.882Z,3.09
2023-04-20T03:57:51.164Z,3.04
2023-04-20T04:00:36.505Z,3.08
2023-04-20T04:03:21.940Z,3.07
2023-04-20T04:06:07.159Z,3.06
2023-04-20T04:08:52.564Z,2.98
2023-04-20T04:11:38.007Z,3.29
2023-04-20T04:14:23.581Z,3.06
2023-04-20T04:17:09.065Z,3.30
2023-04-20T04:19:54.416Z,2.86
2023-04-20T04:22:39.667Z,3.20
2023-04-20T04:25:25.096Z,3.14
2023-04-20T04:28:10.622Z,3.28
2023-04-20T04:30:55.960Z,3.05
2023-04-20T04:33:41.432Z,2.99
2023-04-20T04:36:26.742Z,2.90
2023-04-20T04:39:12.031Z,2.86
2023-04-20T04:41:57.368Z,2.92
2023-04-20T04:44:42.617Z,2.87
2023-04-20T04:47:27.984Z,2.94
2023-04-20T04:50:13.246Z,3.05
2023-04-20T04:52:58.736Z,2.90
2023-04-20T04:55:43.953Z,3.01
2023-04-20T04:58:29.138Z,3.06
2023-04-20T05:01:14.558Z,3.04
2023-04-20T05:04:00.109Z,3.15
2023-04-20T05:06:45.541Z,3.13
2023-04-20T05:09:30.888Z,2.81
2023-04-20T05:12:16.289Z,2.97
2023-04-20T05:15:01.782Z,3.20
2023-04-20T05:17:47.195Z,2.85
2023-04-20T05:20:32.652Z,2.87
2023-04-20T05:23:18.092Z,2.90
2023-04-20T05:26:03.400Z,3.01
2023-04-20T05:28:48.777Z,2.89
2023-04-20T05:31:34.037Z,3.07
2023-04-20T05:34:19.717Z,2.98
2023-04-20T05:37:05.158Z,3.02
2023-04-20T05:39:50.502Z,2.70
2023-04-20T05:42:36.038Z,2.75
2023-04-20T05:45:21.442Z,2.87
2023-04-20T05:48:07.065Z,2.80
2023-04-20T05:50:52.243Z,2.82
2023-04-20T05:53:37.684Z,2.80
2023-04-20T05:56:22.848Z,2.80
2023-04-20T05:59:08.277Z,3.07
2023-04-20T06:01:53.570Z,3.05
2023-04-20T06:04:38.839Z,2.90
2023-04-20T06:07:24.067Z,3.00
2023-04-20T06:10:09.610Z,3.11
2023-04-20T06:12:54.980Z,3.17
2023-04-20T06:15:40.245Z,3.20
2023-04-20T06:18:25.717Z,3.11
2023-04-20T06:21:11.124Z,3.27
2023-04-20T06:23:56.411Z,2.85
2023-04-20T06:26:41.663Z,3.14
2023-04-20T06:29:26.953Z,3.14
2023-04-20T06:32:12.376Z,3.02
2023-04-20T06:34:57.717Z,3.24
2023-04-20T06:37:42.647Z,2.91
2023-04-20T06:40:27.799Z,3.06
2023-04-20T06:43:12.999Z,2.88
2023-04-20T06:45:58.438Z,3.14
2023-04-20T06:48:43.781Z,3.21
2023-04-20T06:51:28.915Z,2.99
2023-04-20T06:54:14.352Z,3.03
2023-04-20T06:56:59.493Z,3.14
2023-04-20T06:59:44.788Z,3.13
2023-04-20T07:02:30.182Z,2.97
2023-04-20T07:05:15.621Z,2.92
2023-04-20T07:08:00.791Z,2.98
2023-04-20T07:10:46.182Z,3.11
2023-04-20T07:13:33.474Z,2.83
2023-04-20T07:16:19.126Z,2.81
2023-04-20T07:19:04.392Z,3.01
2023-04-20T07:21:49.717Z,2.89
2023-04-20T07:24:35.151Z,2.71
2023-04-20T07:27:20.812Z,2.98
2023-04-20T07:30:06.304Z,2.94
2023-04-20T07:32:51.933Z,2.88
2023-04-20T07:35:37.587Z,2.79
2023-04-20T07:38:22.882Z,2.87
2023-04-20T07:41:07.904Z,2.83
2023-04-20T07:43:53.344Z,2.79
2023-04-20T07:46:39.135Z,2.74
2023-04-20T07:49:25.898Z,2.82
2023-04-20T07:52:16.751Z,2.79
2023-04-20T07:55:02.846Z,2.75
2023-04-20T07:57:49.508Z,2.84
2023-04-20T08:00:35.189Z,2.83
2023-04-20T08:03:21.195Z,2.63
2023-04-20T08:06:06.856Z,2.78
2023-04-20T08:08:53.045Z,2.54
2023-04-20T08:11:38.253Z,2.81
2023-04-20T08:14:23.447Z,3.06
2023-04-20T08:17:08.894Z,2.61
2023-04-20T08:19:54.176Z,2.70
2023-04-20T08:22:39.432Z,2.64
2023-04-20T08:25:25.436Z,2.91
2023-04-20T08:28:19.204Z,2.68
2023-04-20T08:31:09.517Z,2.75
2023-04-20T08:33:54.873Z,2.64
2023-04-20T08:36:40.277Z,2.56
2023-04-20T08:39:25.374Z,2.56
2023-04-20T08:42:10.747Z,2.59
2023-04-20T08:44:56.111Z,2.71
2023-04-20T08:47:41.581Z,2.71
2023-04-20T08:50:26.938Z,2.59
2023-04-20T08:53:12.216Z,2.77
2023-04-20T08:55:57.644Z,2.73
2023-04-20T08:58:42.619Z,2.78
2023-04-20T09:01:34.705Z,2.90
2023-04-20T09:04:21.243Z,2.52
2023-04-20T09:07:09.628Z,2.65
2023-04-20T09:09:55.023Z,2.61
2023-04-20T09:12:40.440Z,2.68
2023-04-20T09:15:26.258Z,2.62
2023-04-20T09:18:11.611Z,2.64
2023-04-20T09:20:56.917Z,2.65
2023-04-20T09:23:42.406Z,2.85
2023-04-20T09:26:27.746Z,2.75
2023-04-20T09:29:13.194Z,2.55
2023-04-20T09:31:58.526Z,2.45
2023-04-20T09:34:43.872Z,2.77
2023-04-20T09:37:29.324Z,2.58
2023-04-20T09:40:14.508Z,2.83
2023-04-20T09:43:00.008Z,3.04
2023-04-20T09:45:44.948Z,3.02
2023-04-20T09:48:32.039Z,3.33
2023-04-20T09:51:17.727Z,4.05
2023-04-20T09:54:03.195Z,5.28
2023-04-20T09:56:48.615Z,5.10
2023-04-20T09:59:34.051Z,5.10
2023-04-20T10:02:19.760Z,4.94
2023-04-20T10:05:04.880Z,4.44
2023-04-20T10:07:50.081Z,4.17
2023-04-20T10:10:35.554Z,4.44
2023-04-20T10:13:20.921Z,4.42
2023-04-20T10:16:05.991Z,4.12
2023-04-20T10:18:52.174Z,4.03
2023-04-20T10:21:37.161Z,4.13
2023-04-20T10:24:22.832Z,4.08
2023-04-20T10:27:07.795Z,3.83
2023-04-20T10:29:52.766Z,3.69
2023-04-20T10:32:38.675Z,3.79
2023-04-20T10:35:23.943Z,5.25
2023-04-20T10:38:09.354Z,8.12
2023-04-20T10:40:54.665Z,7.32
2023-04-20T10:43:40.202Z,7.90
2023-04-20T10:46:25.467Z,8.38
2023-04-20T10:49:10.555Z,9.26
2023-04-20T10:51:55.641Z,10.02
2023-04-20T10:54:41.116Z,10.31
2023-04-20T10:57:26.412Z,28.72
2023-04-20T11:00:11.857Z,36.73
2023-04-20T11:02:57.634Z,40.08
2023-04-20T11:05:42.665Z,48.03
2023-04-20T11:08:27.993Z,45.79
2023-04-20T11:11:13.365Z,52.28
2023-04-20T11:13:58.788Z,54.72
2023-04-20T11:16:49.578Z,53.74
2023-04-20T11:19:35.782Z,52.21
2023-04-20T11:22:21.214Z,51.75
2023-04-20T11:25:06.665Z,49.47
2023-04-20T11:27:51.650Z,49.20
2023-04-20T11:30:37.266Z,48.47
2023-04-20T11:33:22.572Z,47.97
2023-04-20T11:36:09.437Z,47.36
2023-04-20T11:38:55.412Z,46.93
2023-04-20T11:41:40.695Z,47.28
2023-04-20T11:44:26.297Z,46.25
2023-04-20T11:47:14.784Z,45.17
2023-04-20T11:50:00.013Z,44.73
2023-04-20T11:52:45.452Z,43.89
2023-04-20T11:55:30.392Z,43.73
2023-04-20T11:58:17.023Z,43.64
2023-04-20T12:01:02.296Z,41.65
2023-04-20T12:03:48.236Z,40.91
2023-04-20T12:06:33.594Z,41.52
2023-04-20T12:09:19.065Z,40.74
2023-04-20T12:12:04.323Z,40.41
2023-04-20T12:14:49.817Z,39.09
2023-04-20T12:17:34.965Z,38.98
2023-04-20T12:20:20.375Z,38.78
2023-04-20T12:23:05.666Z,38.49
2023-04-20T12:25:50.833Z,37.22
2023-04-20T12:28:35.807Z,37.40
2023-04-20T12:31:21.006Z,37.12
2023-04-20T12:34:06.462Z,36.36
2023-04-20T12:36:51.770Z,36.25
2023-04-20T12:39:37.216Z,35.93
2023-04-20T12:42:22.675Z,36.04
2023-04-20T12:45:07.901Z,34.79
2023-04-20T12:47:55.781Z,34.32
2023-04-20T12:50:42.134Z,34.09
2023-04-20T12:53:27.872Z,33.45
2023-04-20T12:56:13.259Z,33.38
2023-04-20T12:58:58.464Z,32.56
2023-04-20T13:01:43.576Z,32.55
2023-04-20T13:04:28.988Z,32.07
2023-04-20T13:07:14.368Z,32.79
2023-04-20T13:09:59.796Z,31.91
2023-04-20T13:12:45.211Z,30.91
2023-04-20T13:15:39.092Z,31.00
2023-04-20T13:18:24.881Z,30.77
2023-04-20T13:21:10.193Z,29.91
2023-04-20T13:23:56.988Z,29.43
2023-04-20T13:26:42.682Z,29.30
2023-04-20T13:29:27.993Z,29.21
2023-04-20T13:32:13.450Z,28.31
2023-04-20T13:34:58.896Z,27.91
2023-04-20T13:37:44.264Z,27.78
2023-04-20T13:40:29.728Z,28.13
2023-04-20T13:43:14.929Z,27.24
2023-04-20T13:46:00.257Z,27.07
2023-04-20T13:48:45.539Z,26.60
2023-04-20T13:51:31.050Z,26.02
2023-04-20T13:54:16.545Z,26.12
2023-04-20T13:57:01.743Z,25.76
2023-04-20T13:59:47.158Z,25.29
2023-04-20T14:02:32.678Z,24.34
2023-04-20T14:05:18.036Z,23.77
2023-04-20T14:08:03.106Z,23.75
2023-04-20T14:10:48.480Z,23.25
2023-04-20T14:13:33.601Z,23.93
2023-04-20T14:16:18.812Z,23.93
2023-04-20T14:19:04.103Z,22.73
2023-04-20T14:21:50.096Z,22.51
2023-04-20T14:24:35.510Z,21.92
2023-04-20T14:27:20.921Z,22.32
2023-04-20T14:30:06.202Z,21.47
2023-04-20T14:32:51.588Z,21.97
2023-04-20T14:35:36.818Z,21.76
2023-04-20T14:38:22.345Z,21.09
2023-04-20T14:41:07.617Z,20.78
2023-04-20T14:43:52.845Z,21.03
2023-04-20T14:46:39.004Z,19.88
2023-04-20T14:49:25.329Z,19.67
2023-04-20T14:52:10.603Z,20.74
2023-04-20T14:54:56.032Z,19.82
2023-04-20T14:57:41.226Z,19.85
2023-04-20T15:00:29.555Z,19.64
2023-04-20T15:03:14.618Z,19.59
2023-04-20T15:06:00.128Z,19.08
2023-04-20T15:08:45.467Z,19.13
2023-04-20T15:11:31.080Z,18.11
2023-04-20T15:14:16.585Z,18.48
2023-04-20T15:17:02.371Z,18.33
2023-04-20T15:19:47.701Z,18.56
2023-04-20T15:22:33.139Z,18.19
2023-04-20T15:25:18.517Z,18.05
2023-04-20T15:28:04.000Z,18.12
2023-04-20T15:30:49.311Z,17.64
2023-04-20T15:33:34.722Z,17.38
2023-04-20T15:36:20.065Z,17.01
2023-04-20T15:39:05.394Z,17.07
2023-04-20T15:41:50.940Z,16.66
2023-04-20T15:44:36.154Z,17.03
2023-04-20T15:47:23.059Z,16.92
2023-04-20T15:50:08.286Z,17.48
2023-04-20T15:52:53.594Z,15.66
2023-04-20T15:55:39.036Z,16.51
2023-04-20T15:58:24.248Z,16.52
2023-04-20T16:01:09.657Z,16.09
2023-04-20T16:03:55.277Z,15.53
2023-04-20T16:06:40.499Z,15.90
2023-04-20T16:09:25.970Z,15.14
2023-04-20T16:12:11.029Z,15.45
2023-04-20T16:14:56.301Z,15.62
2023-04-20T16:17:41.662Z,15.63
2023-04-20T16:20:27.143Z,15.25
2023-04-20T16:23:13.161Z,14.30
2023-04-20T16:25:58.666Z,13.82
2023-04-20T16:28:44.108Z,12.94
2023-04-20T16:31:29.570Z,12.20
2023-04-20T16:34:14.901Z,12.80
2023-04-20T16:36:59.928Z,13.12
2023-04-20T16:39:45.254Z,15.67
2023-04-20T16:42:30.314Z,16.18
2023-04-20T16:45:15.779Z,16.84
2023-04-20T16:48:01.288Z,17.96
2023-04-20T16:50:46.274Z,19.17
2023-04-20T16:53:31.580Z,19.48
2023-04-20T16:56:17.041Z,18.50
2023-04-20T16:59:02.367Z,17.46
2023-04-20T17:01:47.685Z,17.18
2023-04-20T17:04:33.157Z,16.63
2023-04-20T17:07:18.337Z,16.14
2023-04-20T17:10:03.635Z,16.02
2023-04-20T17:12:48.976Z,15.44
2023-04-20T17:15:34.199Z,15.27
2023-04-20T17:18:19.350Z,15.36
2023-04-20T17:21:04.764Z,14.84
2023-04-20T17:23:50.135Z,14.80
2023-04-20T17:26:35.527Z,14.19
2023-04-20T17:29:21.042Z,14.18
2023-04-20T17:32:06.320Z,14.13
2023-04-20T17:34:51.969Z,14.11
2023-04-20T17:37:37.182Z,13.73
2023-04-20T17:40:22.610Z,13.47
2023-04-20T17:43:08.022Z,13.11
2023-04-20T17:45:53.167Z,13.12
2023-04-20T17:48:38.837Z,12.95
2023-04-20T17:51:24.465Z,13.09
2023-04-20T17:54:09.844Z,12.79
2023-04-20T17:56:55.256Z,12.82
2023-04-20T17:59:40.812Z,12.48
2023-04-20T18:02:26.285Z,12.48
2023-04-20T18:05:11.745Z,11.97
2023-04-20T18:07:57.246Z,11.83
2023-04-20T18:10:42.490Z,11.92
2023-04-20T18:13:27.868Z,11.95
2023-04-20T18:16:13.275Z,11.86
2023-04-20T18:18:58.492Z,11.74
2023-04-20T18:21:43.901Z,11.88
2023-04-20T18:24:29.110Z,11.93
2023-04-20T18:27:14.332Z,12.16
2023-04-20T18:29:59.661Z,11.21
2023-04-20T18:32:45.088Z,11.28
2023-04-20T18:35:30.438Z,11.40
2023-04-20T18:38:15.713Z,11.28
2023-04-20T18:41:01.186Z,11.14
2023-04-20T18:43:46.514Z,11.00
2023-04-20T18:46:35.106Z,11.17
2023-04-20T18:49:20.536Z,11.25
2023-04-20T18:52:05.800Z,10.73
2023-04-20T18:54:51.097Z,10.97
2023-04-20T18:57:36.218Z,10.19
2023-04-20T19:00:21.533Z,10.15
2023-04-20T19:03:06.953Z,10.39
2023-04-20T19:05:52.260Z,10.82
2023-04-20T19:08:37.674Z,10.69
2023-04-20T19:11:22.658Z,10.32
2023-04-20T19:14:07.938Z,10.24
2023-04-20T19:16:53.456Z,9.73
2023-04-20T19:19:49.732Z,9.80
2023-04-20T19:22:34.719Z,10.33
2023-04-20T19:25:19.598Z,10.04
2023-04-20T19:28:04.824Z,9.94
2023-04-20T19:30:50.071Z,9.67
2023-04-20T19:33:35.306Z,9.63
2023-04-20T19:36:20.401Z,9.79
2023-04-20T19:39:05.869Z,9.59
2023-04-20T19:41:51.265Z,9.51
2023-04-20T19:44:36.478Z,9.02
2023-04-20T19:47:22.001Z,9.79
2023-04-20T19:50:07.371Z,9.26
2023-04-20T19:52:52.241Z,9.03
2023-04-20T19:55:37.552Z,15.56
2023-04-20T19:58:22.974Z,173.43
2023-04-20T20:01:08.441Z,118.32
2023-04-20T20:03:54.081Z,171.09
2023-04-20T20:06:39.216Z,166.25
2023-04-20T20:09:25.744Z,179.97
2023-04-20T20:12:10.951Z,176.41
2023-04-20T20:14:56.051Z,184.97
2023-04-20T20:17:41.652Z,181.27
2023-04-20T20:20:27.050Z,182.33
2023-04-20T20:23:12.183Z,180.74
2023-04-20T20:25:57.351Z,182.25
2023-04-20T20:28:42.402Z,173.63
2023-04-20T20:31:27.664Z,171.40
2023-04-20T20:34:12.768Z,169.41
2023-04-20T20:36:57.904Z,168.64
2023-04-20T20:39:43.370Z,163.94
2023-04-20T20:42:28.616Z,161.23
2023-04-20T20:45:14.040Z,156.85
2023-04-20T20:47:59.527Z,153.86
2023-04-20T20:50:44.770Z,152.51
2023-04-20T20:53:30.017Z,150.68
2023-04-20T20:56:15.436Z,149.25
2023-04-20T20:59:00.989Z,148.24
2023-04-20T21:01:46.462Z,145.02
2023-04-20T21:04:31.691Z,144.49
2023-04-20T21:07:17.173Z,143.34
2023-04-20T21:10:02.487Z,143.04
2023-04-20T21:12:47.995Z,139.76
2023-04-20T21:15:33.301Z,138.84
2023-04-20T21:18:18.852Z,139.50
2023-04-20T21:21:04.265Z,136.35
2023-04-20T21:23:49.721Z,136.99
2023-04-20T21:26:35.082Z,136.34
2023-04-20T21:29:20.698Z,135.25
2023-04-20T21:32:05.984Z,134.12
2023-04-20T21:34:51.278Z,131.14
2023-04-20T21:37:36.613Z,131.04
2023-04-20T21:40:22.037Z,130.30
2023-04-20T21:43:07.441Z,131.01
2023-04-20T21:45:53.150Z,129.75
2023-04-20T21:48:38.115Z,128.27
2023-04-20T21:51:23.596Z,128.85
2023-04-20T21:54:08.689Z,125.92
2023-04-20T21:56:54.140Z,126.73
2023-04-20T21:59:39.501Z,127.06
2023-04-20T22:02:24.820Z,124.70
2023-04-20T22:05:09.741Z,124.45
2023-04-20T22:07:55.016Z,123.37
2023-04-20T22:10:40.436Z,124.50
2023-04-20T22:13:25.885Z,121.55
2023-04-20T22:16:11.297Z,120.78
2023-04-20T22:18:56.726Z,119.10
2023-04-20T22:21:42.159Z,120.18
2023-04-20T22:24:27.221Z,119.11
2023-04-20T22:27:12.547Z,117.90
2023-04-20T22:29:57.837Z,116.83
2023-04-20T22:32:43.429Z,116.94
2023-04-20T22:35:28.391Z,115.97
2023-04-20T22:38:13.846Z,115.35
2023-04-20T22:40:58.962Z,115.13
2023-04-20T22:43:44.393Z,114.49
2023-04-20T22:46:29.790Z,112.53
2023-04-20T22:49:15.246Z,113.62
2023-04-20T22:52:00.586Z,112.38
2023-04-20T22:54:45.898Z,111.32
2023-04-20T22:57:31.443Z,111.14
2023-04-20T23:00:16.526Z,108.77
2023-04-20T23:03:02.064Z,110.10
2023-04-20T23:05:47.598Z,107.63
2023-04-20T23:08:32.630Z,108.65
2023-04-20T23:11:18.088Z,107.89
2023-04-20T23:14:03.532Z,105.87
2023-04-20T23:16:49.111Z,106.69
2023-04-20T23:19:34.420Z,105.68
2023-04-20T23:22:19.738Z,104.48
2023-04-20T23:25:05.254Z,103.85
2023-04-20T23:27:50.380Z,102.65
2023-04-20T23:30:35.632Z,103.30
2023-04-20T23:33:20.987Z,103.40
2023-04-20T23:36:06.426Z,102.57
2023-04-20T23:38:51.814Z,101.17
2023-04-20T23:41:37.178Z,99.77
2023-04-20T23:44:22.580Z,101.19
2023-04-20T23:47:07.754Z,99.75
2023-04-20T23:49:52.991Z,99.29
2023-04-20T23:52:37.970Z,98.96
2023-04-20T23:55:22.979Z,97.23
2023-04-20T23:58:08.234Z,98.33
